createdAt,value
2019-05-17T00:01:46.938Z,7.95
2019-05-17T00:04:16.612Z,6.53
2019-05-17T00:06:47.462Z,10.38
2019-05-17T00:09:17.414Z,11.53
2019-05-17T00:11:47.213Z,8.53
2019-05-17T00:14:16.757Z,9.65
2019-05-17T00:16:46.803Z,8.98
2019-05-17T00:19:16.906Z,7.60
2019-05-17T00:21:47.312Z,9.60
2019-05-17T00:24:15.098Z,9.65
2019-05-17T00:26:43.109Z,7.42
2019-05-17T00:29:11.207Z,8.63
2019-05-17T00:31:39.402Z,9.78
2019-05-17T00:34:07.499Z,7.85
2019-05-17T00:36:37.529Z,9.08
2019-05-17T00:39:07.482Z,8.08
2019-05-17T00:41:37.543Z,6.55
2019-05-17T00:44:06.299Z,8.25
2019-05-17T00:46:37.254Z,7.30
2019-05-17T00:49:06.528Z,8.68
2019-05-17T00:51:36.702Z,9.23
2019-05-17T00:54:06.636Z,11.97
2019-05-17T00:56:34.200Z,10.48
2019-05-17T00:59:02.404Z,7.80
2019-05-17T01:01:30.972Z,8.73
2019-05-17T01:03:58.858Z,8.88
2019-05-17T01:06:27.572Z,7.72
2019-05-17T01:09:01.935Z,7.65
2019-05-17T01:11:27.072Z,8.33
2019-05-17T01:13:56.494Z,7.33
2019-05-17T01:16:27.107Z,9.38
2019-05-17T01:18:57.178Z,9.43
2019-05-17T01:21:26.305Z,9.35
2019-05-17T01:23:56.226Z,9.33
2019-05-17T01:26:26.568Z,9.60
2019-05-17T01:28:53.860Z,11.18
2019-05-17T01:31:21.758Z,9.78
2019-05-17T01:33:49.642Z,8.80
2019-05-17T01:36:17.528Z,12.70
2019-05-17T01:38:46.902Z,10.20
2019-05-17T01:41:17.173Z,11.57
2019-05-17T01:43:47.286Z,11.10
2019-05-17T01:46:17.030Z,10.30
2019-05-17T01:48:46.956Z,9.70
2019-05-17T01:51:16.889Z,12.82
2019-05-17T01:53:46.942Z,12.07
2019-05-17T01:56:16.949Z,9.60
2019-05-17T01:58:46.997Z,10.63
2019-05-17T02:01:16.955Z,10.58
2019-05-17T02:03:46.777Z,10.90
2019-05-17T02:06:16.398Z,10.13
2019-05-17T02:08:44.374Z,10.00
2019-05-17T02:11:12.231Z,11.10
2019-05-17T02:13:40.445Z,12.50
2019-05-17T02:16:08.262Z,11.22
2019-05-17T02:18:37.194Z,10.48
2019-05-17T02:21:06.504Z,11.10
2019-05-17T02:23:36.957Z,10.95
2019-05-17T02:26:06.628Z,15.07
2019-05-17T02:28:35.139Z,11.45
2019-05-17T02:31:03.652Z,12.35
2019-05-17T02:33:33.329Z,11.78
2019-05-17T02:36:02.732Z,14.40
2019-05-17T02:38:33.311Z,12.55
2019-05-17T02:41:03.226Z,14.70
2019-05-17T02:43:33.557Z,14.03
2019-05-17T02:46:03.464Z,13.43
2019-05-17T02:48:33.406Z,14.20
2019-05-17T02:51:03.131Z,15.72
2019-05-17T02:53:29.651Z,15.53
2019-05-17T02:55:57.946Z,14.87
2019-05-17T02:58:25.850Z,18.77
2019-05-17T03:00:53.856Z,16.42
2019-05-17T03:03:23.693Z,16.60
2019-05-17T03:05:53.592Z,17.62
2019-05-17T03:08:23.435Z,19.57
2019-05-17T03:10:53.497Z,16.93
2019-05-17T03:13:23.399Z,17.98
2019-05-17T03:15:52.756Z,17.80
2019-05-17T03:18:22.884Z,19.82
2019-05-17T03:20:52.523Z,18.75
2019-05-17T03:23:23.202Z,19.50
2019-05-17T03:25:52.516Z,20.50
2019-05-17T03:28:23.651Z,19.95
2019-05-17T03:30:55.660Z,20.48
2019-05-17T03:33:25.858Z,21.27
2019-05-17T03:35:55.978Z,21.93
2019-05-17T03:38:22.790Z,22.42
2019-05-17T03:41:17.853Z,21.95
2019-05-17T03:43:22.628Z,22.20
2019-05-17T03:45:53.325Z,23.42
2019-05-17T03:48:22.211Z,21.33
2019-05-17T03:50:53.155Z,22.98
2019-05-17T03:53:22.850Z,23.12
2019-05-17T03:55:53.759Z,22.80
2019-05-17T03:58:23.278Z,23.02
2019-05-17T04:00:53.552Z,21.42
2019-05-17T04:03:22.908Z,20.25
2019-05-17T04:05:52.660Z,24.20
2019-05-17T04:08:22.811Z,20.55
2019-05-17T04:10:52.721Z,23.40
2019-05-17T04:13:19.489Z,22.25
2019-05-17T04:15:47.387Z,22.17
2019-05-17T04:18:15.879Z,20.75
2019-05-17T04:20:43.771Z,18.98
2019-05-17T04:23:12.723Z,20.80
2019-05-17T04:25:43.619Z,23.12
2019-05-17T04:28:13.640Z,21.55
2019-05-17T04:30:43.274Z,23.77
2019-05-17T04:33:14.389Z,24.72
2019-05-17T04:35:43.183Z,27.82
2019-05-17T04:38:12.801Z,27.77
2019-05-17T04:40:43.216Z,31.37
2019-05-17T04:43:13.635Z,30.85
2019-05-17T04:45:42.598Z,31.53
2019-05-17T04:48:13.230Z,32.15
2019-05-17T04:50:42.887Z,35.68
2019-05-17T04:53:13.378Z,33.38
2019-05-17T04:55:43.166Z,40.50
2019-05-17T04:58:13.756Z,40.60
2019-05-17T05:00:43.017Z,41.95
2019-05-17T05:03:12.761Z,35.60
2019-05-17T05:05:42.812Z,38.50
2019-05-17T05:08:13.061Z,39.55
2019-05-17T05:10:42.738Z,40.28
2019-05-17T05:13:13.307Z,40.55
2019-05-17T05:15:44.119Z,42.78
2019-05-17T05:18:13.325Z,43.87
2019-05-17T05:20:43.473Z,40.20
2019-05-17T05:23:12.968Z,39.13
2019-05-17T05:25:42.988Z,46.55
2019-05-17T05:28:14.714Z,43.60
2019-05-17T05:30:42.630Z,42.17
2019-05-17T05:33:12.986Z,41.02
2019-05-17T05:35:42.498Z,41.95
2019-05-17T05:38:13.097Z,37.58
2019-05-17T05:40:41.416Z,42.07
2019-05-17T05:43:11.747Z,37.15
2019-05-17T05:45:41.696Z,37.73
2019-05-17T05:48:13.844Z,34.73
2019-05-17T05:50:43.236Z,36.90
2019-05-17T05:53:12.864Z,38.40
2019-05-17T05:55:42.795Z,32.17
2019-05-17T05:58:12.074Z,41.37
2019-05-17T06:00:42.618Z,40.07
2019-05-17T06:03:13.933Z,36.60
2019-05-17T06:05:42.507Z,38.00
2019-05-17T06:08:12.287Z,41.28
2019-05-17T06:10:42.563Z,36.42
2019-05-17T06:13:12.735Z,38.75
2019-05-17T06:15:43.042Z,38.13
2019-05-17T06:18:12.179Z,37.23
2019-05-17T06:20:41.733Z,37.25
2019-05-17T06:23:12.318Z,40.90
2019-05-17T06:25:43.113Z,38.10
2019-05-17T06:28:11.457Z,42.58
2019-05-17T06:30:43.116Z,39.55
2019-05-17T06:33:11.991Z,40.50
2019-05-17T06:35:42.307Z,34.75
2019-05-17T06:38:12.137Z,40.73
2019-05-17T06:40:41.937Z,40.55
2019-05-17T06:43:13.159Z,44.25
2019-05-17T06:45:41.948Z,43.48
2019-05-17T06:48:11.770Z,42.95
2019-05-17T06:50:42.564Z,45.23
2019-05-17T06:53:12.355Z,44.08
2019-05-17T06:55:42.420Z,43.73
2019-05-17T06:58:12.290Z,45.93
2019-05-17T07:00:40.773Z,48.92
2019-05-17T07:03:09.576Z,47.67
2019-05-17T07:05:40.508Z,48.13
2019-05-17T07:08:11.226Z,44.48
2019-05-17T07:10:39.960Z,47.25
2019-05-17T07:13:10.619Z,47.38
2019-05-17T07:15:46.763Z,51.28
2019-05-17T07:18:10.312Z,44.25
2019-05-17T07:20:39.475Z,52.83
2019-05-17T07:23:10.477Z,46.53
2019-05-17T07:25:39.667Z,44.83
2019-05-17T07:28:10.153Z,47.85
2019-05-17T07:30:40.068Z,45.65
2019-05-17T07:33:09.806Z,44.33
2019-05-17T07:35:39.738Z,46.10
2019-05-17T07:38:10.300Z,46.60
2019-05-17T07:40:39.927Z,44.67
2019-05-17T07:43:13.933Z,52.03
2019-05-17T07:45:40.158Z,50.28
2019-05-17T07:48:09.575Z,50.40
2019-05-17T07:50:39.585Z,50.67
2019-05-17T07:53:09.966Z,48.33
2019-05-17T07:55:37.064Z,51.88
2019-05-17T07:58:05.397Z,51.85
2019-05-17T08:00:34.187Z,49.60
2019-05-17T08:03:03.369Z,52.78
2019-05-17T08:05:31.411Z,49.00
2019-05-17T08:08:00.155Z,47.30
2019-05-17T08:10:29.798Z,51.20
2019-05-17T08:12:59.901Z,49.35
2019-05-17T08:15:30.309Z,49.98
2019-05-17T08:17:59.401Z,47.98
2019-05-17T08:20:27.327Z,54.18
2019-05-17T08:22:55.227Z,52.58
2019-05-17T08:25:23.077Z,55.23
2019-05-17T08:27:51.290Z,52.48
2019-05-17T08:30:20.642Z,52.70
2019-05-17T08:32:50.629Z,50.35
2019-05-17T08:35:20.162Z,52.93
2019-05-17T08:37:49.893Z,55.90
2019-05-17T08:40:20.048Z,62.38
2019-05-17T08:42:49.864Z,63.05
2019-05-17T08:45:20.669Z,62.88
2019-05-17T08:47:50.026Z,65.78
2019-05-17T08:50:20.073Z,68.95
2019-05-17T08:52:49.514Z,67.97
2019-05-17T08:55:17.465Z,71.95
2019-05-17T08:57:45.339Z,70.78
2019-05-17T09:00:13.567Z,77.08
2019-05-17T09:02:41.508Z,70.62
2019-05-17T09:05:09.935Z,77.10
2019-05-17T09:07:40.304Z,72.87
2019-05-17T09:10:09.979Z,74.12
2019-05-17T09:12:40.550Z,73.10
2019-05-17T09:15:09.815Z,76.05
2019-05-17T09:17:39.690Z,74.45
2019-05-17T09:20:10.686Z,66.53
2019-05-17T09:22:39.619Z,63.00
2019-05-17T09:25:13.623Z,58.35
2019-05-17T09:27:39.699Z,57.85
2019-05-17T09:30:10.799Z,56.85
2019-05-17T09:32:40.466Z,57.05
2019-05-17T09:35:10.069Z,56.00
2019-05-17T09:37:41.020Z,56.25
2019-05-17T09:40:09.558Z,55.35
2019-05-17T09:42:40.772Z,53.83
2019-05-17T09:45:09.615Z,59.93
2019-05-17T09:47:39.734Z,56.18
2019-05-17T09:50:10.006Z,50.88
2019-05-17T09:52:40.259Z,53.60
2019-05-17T09:55:09.864Z,52.55
2019-05-17T09:57:40.496Z,49.38
2019-05-17T10:00:09.908Z,45.43
2019-05-17T10:02:40.187Z,47.35
2019-05-17T10:05:10.608Z,48.42
2019-05-17T10:07:40.214Z,48.20
2019-05-17T10:10:10.383Z,46.20
2019-05-17T10:12:40.460Z,47.10
2019-05-17T10:15:10.014Z,43.48
2019-05-17T10:17:38.590Z,44.25
2019-05-17T10:20:07.334Z,42.95
2019-05-17T10:22:35.226Z,41.42
2019-05-17T10:25:03.882Z,45.17
2019-05-17T10:27:32.110Z,44.10
2019-05-17T10:30:00.365Z,42.05
2019-05-17T10:32:33.570Z,40.33
2019-05-17T10:35:01.204Z,42.13
2019-05-17T10:37:30.315Z,47.40
2019-05-17T10:42:39.601Z,56.63
2019-05-17T10:45:10.582Z,61.25
2019-05-17T10:47:39.668Z,57.98
2019-05-17T10:50:10.278Z,54.20
2019-05-17T10:52:40.512Z,52.05
2019-05-17T10:55:07.610Z,49.98
2019-05-17T11:00:45.148Z,43.90
2019-05-17T11:03:12.766Z,44.58
2019-05-17T11:05:40.527Z,42.15
2019-05-17T11:08:10.318Z,42.23
2019-05-17T11:10:39.340Z,45.10
2019-05-17T11:13:07.051Z,42.85
2019-05-17T11:15:34.530Z,37.75
2019-05-17T11:18:02.410Z,40.05
2019-05-17T11:20:30.242Z,42.40
2019-05-17T11:22:57.783Z,37.93
2019-05-17T11:25:25.585Z,41.85
2019-05-17T11:27:53.508Z,42.20
2019-05-17T11:30:21.420Z,38.08
2019-05-17T11:32:49.176Z,35.83
2019-05-17T11:35:16.855Z,41.85
2019-05-17T11:37:44.538Z,41.55
2019-05-17T11:40:12.716Z,43.28
2019-05-17T11:42:40.310Z,46.60
2019-05-17T11:45:08.449Z,38.63
2019-05-17T11:50:14.974Z,38.02
2019-05-17T11:52:42.478Z,38.83
2019-05-17T11:55:10.140Z,36.38
2019-05-17T11:57:37.737Z,34.48
2019-05-17T12:00:05.647Z,34.55
2019-05-17T12:02:33.525Z,35.33
2019-05-17T12:05:01.119Z,34.75
2019-05-17T12:07:28.744Z,31.68
2019-05-17T12:09:56.863Z,35.63
2019-05-17T12:12:24.449Z,34.60
2019-05-17T12:14:52.307Z,36.50
2019-05-17T12:17:20.217Z,33.05
2019-05-17T12:19:47.766Z,34.88
2019-05-17T12:22:15.364Z,32.93
2019-05-17T12:24:42.995Z,33.58
2019-05-17T12:27:11.575Z,36.40
2019-05-17T12:29:39.172Z,33.67
2019-05-17T12:32:06.775Z,35.73
2019-05-17T12:34:34.662Z,34.95
2019-05-17T12:37:02.536Z,35.03
2019-05-17T12:39:30.145Z,34.63
2019-05-17T12:41:57.861Z,31.73
2019-05-17T12:44:25.544Z,34.63
2019-05-17T12:46:53.144Z,34.13
2019-05-17T12:49:20.587Z,32.78
2019-05-17T12:51:48.220Z,34.35
2019-05-17T12:54:15.775Z,32.90
2019-05-17T12:56:43.303Z,32.05
2019-05-17T13:02:00.237Z,30.15
2019-05-17T13:04:27.892Z,36.68
2019-05-17T13:06:55.515Z,33.05
2019-05-17T13:09:23.067Z,34.10
2019-05-17T13:11:52.698Z,33.85
2019-05-17T13:14:20.255Z,37.58
2019-05-17T13:16:47.927Z,35.92
2019-05-17T13:19:16.790Z,35.83
2019-05-17T13:21:44.702Z,44.90
2019-05-17T13:24:12.313Z,35.68
2019-05-17T13:26:39.892Z,39.33
2019-05-17T13:29:07.664Z,48.08
2019-05-17T13:31:35.503Z,36.38
2019-05-17T13:34:03.116Z,41.10
2019-05-17T13:36:30.719Z,32.17
2019-05-17T13:38:58.896Z,29.75
2019-05-17T13:41:26.501Z,39.13
2019-05-17T13:43:54.131Z,30.75
2019-05-17T13:46:32.591Z,33.98
2019-05-17T13:48:51.914Z,34.45
2019-05-17T13:51:19.528Z,34.05
2019-05-17T13:53:47.421Z,31.97
2019-05-17T13:56:15.108Z,32.40
2019-05-17T13:58:42.929Z,33.02
2019-05-17T14:01:11.816Z,31.80
2019-05-17T14:03:39.697Z,35.17
2019-05-17T14:06:07.374Z,36.17
2019-05-17T14:08:35.233Z,34.80
2019-05-17T14:11:03.411Z,33.18
2019-05-17T14:16:16.231Z,32.73
2019-05-17T14:18:44.166Z,38.55
2019-05-17T14:21:12.061Z,38.80
2019-05-17T14:23:39.643Z,34.58
2019-05-17T14:26:07.275Z,31.80
2019-05-17T14:28:35.694Z,30.85
2019-05-17T14:31:03.855Z,31.10
2019-05-17T14:33:31.482Z,33.60
2019-05-17T14:35:59.118Z,32.88
2019-05-17T14:38:26.979Z,30.88
2019-05-17T14:41:09.897Z,34.63
2019-05-17T14:43:23.997Z,33.60
2019-05-17T14:45:51.619Z,32.35
2019-05-17T14:48:38.992Z,30.95
2019-05-17T14:51:06.636Z,30.02
2019-05-17T14:53:34.550Z,29.10
2019-05-17T14:56:02.701Z,28.95
2019-05-17T14:58:30.348Z,30.23
2019-05-17T15:00:57.944Z,28.40
2019-05-17T15:03:25.935Z,25.45
2019-05-17T15:05:53.526Z,26.73
2019-05-17T15:08:21.158Z,27.80
2019-05-17T15:10:48.748Z,27.27
2019-05-17T15:13:16.394Z,26.60
2019-05-17T15:15:44.005Z,26.27
2019-05-17T15:18:11.655Z,26.12
2019-05-17T15:20:39.220Z,27.73
2019-05-17T15:23:07.066Z,27.75
2019-05-17T15:25:34.949Z,26.60
2019-05-17T15:28:02.771Z,26.33
2019-05-17T15:30:30.420Z,26.12
2019-05-17T15:32:58.573Z,26.35
2019-05-17T15:35:26.061Z,25.77
2019-05-17T15:37:53.697Z,27.73
2019-05-17T15:40:21.297Z,32.17
2019-05-17T15:42:48.934Z,27.75
2019-05-17T15:45:16.953Z,28.62
2019-05-17T15:47:44.524Z,27.02
2019-05-17T15:50:12.303Z,29.05
2019-05-17T15:55:22.593Z,30.17
2019-05-17T15:57:50.561Z,28.12
2019-05-17T16:00:18.481Z,32.67
2019-05-17T16:02:46.120Z,33.40
2019-05-17T16:05:13.955Z,27.62
2019-05-17T16:07:41.601Z,29.07
2019-05-17T16:10:10.025Z,27.22
2019-05-17T16:12:37.923Z,27.25
2019-05-17T16:15:05.782Z,28.60
2019-05-17T16:17:33.690Z,28.23
2019-05-17T16:20:01.364Z,28.42
2019-05-17T16:22:28.986Z,29.23
2019-05-17T16:24:56.689Z,27.30
2019-05-17T16:27:24.349Z,31.73
2019-05-17T16:29:52.230Z,31.27
2019-05-17T16:32:23.800Z,29.18
2019-05-17T16:34:51.431Z,26.90
2019-05-17T16:37:19.509Z,26.55
2019-05-17T16:40:24.609Z,26.75
2019-05-17T16:45:44.673Z,27.58
2019-05-17T16:48:13.087Z,27.58
2019-05-17T16:50:40.733Z,28.12
2019-05-17T16:53:08.361Z,26.97
2019-05-17T16:55:35.975Z,27.50
2019-05-17T16:58:03.805Z,26.68
2019-05-17T17:00:33.855Z,30.20
2019-05-17T17:03:01.714Z,30.25
2019-05-17T17:05:29.595Z,31.97
2019-05-17T17:07:57.233Z,28.65
2019-05-17T17:10:25.365Z,30.35
2019-05-17T17:12:52.973Z,29.57
2019-05-17T17:15:21.594Z,29.40
2019-05-17T17:17:49.229Z,27.40
2019-05-17T17:20:17.629Z,29.98
2019-05-17T17:22:46.269Z,30.32
2019-05-17T17:25:14.224Z,28.38
2019-05-17T17:27:41.852Z,29.75
2019-05-17T17:30:09.913Z,30.70
2019-05-17T17:32:37.500Z,30.37
2019-05-17T17:35:05.787Z,33.05
2019-05-17T17:37:33.985Z,32.00
2019-05-17T17:40:01.701Z,33.50
2019-05-17T17:42:29.456Z,32.88
2019-05-17T17:44:57.588Z,30.45
2019-05-17T17:47:25.209Z,32.17
2019-05-17T17:49:54.431Z,31.82
2019-05-17T17:52:22.609Z,33.90
2019-05-17T17:57:46.327Z,32.78
2019-05-17T18:00:14.504Z,31.95
2019-05-17T18:02:42.195Z,32.17
2019-05-17T18:05:10.219Z,32.15
2019-05-17T18:07:38.896Z,29.48
2019-05-17T18:10:08.003Z,30.27
2019-05-17T18:12:35.715Z,30.65
2019-05-17T18:15:06.520Z,31.05
2019-05-17T18:17:39.152Z,29.45
2019-05-17T18:20:04.022Z,31.30
2019-05-17T18:22:31.673Z,30.85
2019-05-17T18:24:59.407Z,28.85
2019-05-17T18:27:27.034Z,28.30
2019-05-17T18:29:54.729Z,29.40
2019-05-17T18:32:22.696Z,31.17
2019-05-17T18:34:50.640Z,29.10
2019-05-17T18:37:18.572Z,29.90
2019-05-17T18:39:46.322Z,28.67
2019-05-17T18:42:13.901Z,29.67
2019-05-17T18:44:41.514Z,32.95
2019-05-17T18:47:11.092Z,28.45
2019-05-17T18:49:38.686Z,29.18
2019-05-17T18:52:06.283Z,29.57
2019-05-17T18:54:34.916Z,29.35
2019-05-17T18:57:02.785Z,29.75
2019-05-17T18:59:30.708Z,30.02
2019-05-17T19:01:58.298Z,29.32
2019-05-17T19:04:25.906Z,30.17
2019-05-17T19:06:53.495Z,31.55
2019-05-17T19:09:21.123Z,33.00
2019-05-17T19:11:48.772Z,31.30
2019-05-17T19:14:16.380Z,32.90
2019-05-17T19:16:44.174Z,37.63
2019-05-17T19:19:11.776Z,35.45
2019-05-17T19:21:39.412Z,32.20
2019-05-17T19:24:06.986Z,35.30
2019-05-17T19:26:35.902Z,33.18
2019-05-17T19:29:03.646Z,35.78
2019-05-17T19:31:31.217Z,35.58
2019-05-17T19:33:58.844Z,37.88
2019-05-17T19:36:26.735Z,34.60
2019-05-17T19:38:54.349Z,36.37
2019-05-17T19:41:25.465Z,40.43
2019-05-17T19:46:56.092Z,38.30
2019-05-17T19:49:24.030Z,39.13
2019-05-17T19:51:51.935Z,43.23
2019-05-17T19:54:19.619Z,41.42
2019-05-17T19:56:47.312Z,41.43
2019-05-17T19:59:14.996Z,44.05
2019-05-17T20:01:42.622Z,45.67
2019-05-17T20:04:10.311Z,46.73
2019-05-17T20:06:38.250Z,48.45
2019-05-17T20:09:06.407Z,52.60
2019-05-17T20:11:34.836Z,53.10
2019-05-17T20:14:02.507Z,62.03
2019-05-17T20:16:30.143Z,60.13
2019-05-17T20:18:58.396Z,66.90
2019-05-17T20:21:26.373Z,59.98
2019-05-17T20:23:55.379Z,52.90
2019-05-17T20:26:23.073Z,61.02
2019-05-17T20:28:50.675Z,63.05
2019-05-17T20:31:18.358Z,63.03
2019-05-17T20:33:45.971Z,58.03
2019-05-17T20:36:13.604Z,56.43
2019-05-17T20:38:41.217Z,62.20
2019-05-17T20:41:08.868Z,64.25
2019-05-17T20:43:36.545Z,74.75
2019-05-17T20:46:04.507Z,68.63
2019-05-17T20:48:32.173Z,67.37
2019-05-17T20:50:59.831Z,70.13
2019-05-17T20:53:27.541Z,71.23
2019-05-17T20:55:55.245Z,67.77
2019-05-17T20:58:22.856Z,64.87
2019-05-17T21:00:50.794Z,68.23
2019-05-17T21:03:18.389Z,76.87
2019-05-17T21:05:46.106Z,78.20
2019-05-17T21:08:14.243Z,80.80
2019-05-17T21:10:42.064Z,78.70
2019-05-17T21:13:09.709Z,78.23
2019-05-17T21:15:47.398Z,79.77
2019-05-17T21:18:06.721Z,83.83
2019-05-17T21:20:34.890Z,67.47
2019-05-17T21:23:02.547Z,77.57
2019-05-17T21:28:24.047Z,82.03
2019-05-17T21:30:58.399Z,78.80
2019-05-17T21:33:26.221Z,84.33
2019-05-17T21:38:38.815Z,85.10
2019-05-17T21:41:06.498Z,81.10
2019-05-17T21:43:34.136Z,81.63
2019-05-17T21:46:03.982Z,95.40
2019-05-17T21:48:31.479Z,90.97
2019-05-17T21:50:59.139Z,97.37
2019-05-17T21:53:26.828Z,106.40
2019-05-17T21:55:54.489Z,111.10
2019-05-17T21:58:22.121Z,94.53
2019-05-17T22:01:07.419Z,87.23
2019-05-17T22:03:36.053Z,82.43
2019-05-17T22:06:03.998Z,83.13
2019-05-17T22:08:31.874Z,76.57
2019-05-17T22:10:59.784Z,69.40
2019-05-17T22:13:27.424Z,65.83
2019-05-17T22:15:55.347Z,61.50
2019-05-17T22:18:23.002Z,62.13
2019-05-17T22:20:50.642Z,64.73
2019-05-17T22:23:25.464Z,64.83
2019-05-17T22:25:53.081Z,65.33
2019-05-17T22:28:20.694Z,59.83
2019-05-17T22:30:48.328Z,56.27
2019-05-17T22:33:17.197Z,59.87
2019-05-17T22:35:45.081Z,61.37
2019-05-17T22:38:12.686Z,61.57
2019-05-17T22:40:40.281Z,69.40
2019-05-17T22:43:07.871Z,71.97
2019-05-17T22:45:36.003Z,78.70
2019-05-17T22:48:04.614Z,92.07
2019-05-17T22:50:32.218Z,95.63
2019-05-17T22:52:59.817Z,94.53
2019-05-17T22:55:27.302Z,93.27
2019-05-17T22:57:54.906Z,89.53
2019-05-17T23:00:22.800Z,102.37
2019-05-17T23:02:50.429Z,91.33
2019-05-17T23:05:25.550Z,103.30
2019-05-17T23:07:47.421Z,101.07
2019-05-17T23:10:14.981Z,98.97
2019-05-17T23:15:27.293Z,94.80
2019-05-17T23:17:54.896Z,101.73
2019-05-17T23:20:22.494Z,98.53
2019-05-17T23:22:50.108Z,96.70
2019-05-17T23:25:17.716Z,95.43
2019-05-17T23:27:45.330Z,100.80
2019-05-17T23:30:12.956Z,113.20
2019-05-17T23:32:40.514Z,126.70
2019-05-17T23:35:08.059Z,128.57
2019-05-17T23:37:35.902Z,139.63
2019-05-17T23:40:03.464Z,145.87
2019-05-17T23:42:31.028Z,142.77
2019-05-17T23:44:58.962Z,136.13
2019-05-17T23:47:27.119Z,178.70
2019-05-17T23:49:54.742Z,164.47
2019-05-17T23:52:22.901Z,166.73
2019-05-17T23:54:50.518Z,177.17
2019-05-17T23:57:18.250Z,183.73
2019-05-17T23:59:46.152Z,180.37
